createdAt,value
2018-09-08T00:01:50.964Z,98319.16
2018-09-08T00:04:20.385Z,98313.59
2018-09-08T00:06:55.025Z,98311.88
2018-09-08T00:09:24.426Z,98316.95
2018-09-08T00:11:53.786Z,98315.23
2018-09-08T00:14:23.159Z,98316.50
2018-09-08T00:16:57.547Z,98316.52
2018-09-08T00:19:32.204Z,98314.38
2018-09-08T00:22:06.777Z,98317.30
2018-09-08T00:24:41.190Z,98319.88
2018-09-08T00:27:09.614Z,98313.88
2018-09-08T00:29:48.090Z,98324.92
2018-09-08T00:32:18.364Z,98319.39
2018-09-08T00:34:47.839Z,98320.63
2018-09-08T00:37:17.226Z,98317.61
2018-09-08T00:39:50.796Z,98312.48
2018-09-08T00:42:20.484Z,98305.67
2018-09-08T00:44:49.849Z,98312.02
2018-09-08T00:47:19.237Z,98308.61
2018-09-08T00:49:48.666Z,98309.00
2018-09-08T00:52:18.025Z,98314.92
2018-09-08T00:54:47.424Z,98315.74
2018-09-08T00:57:16.798Z,98317.02
2018-09-08T00:59:46.150Z,98318.25
2018-09-08T01:02:15.530Z,98317.02
2018-09-08T01:04:44.958Z,98317.37
2018-09-08T01:07:19.662Z,98307.34
2018-09-08T01:09:49.110Z,98321.89
2018-09-08T01:12:18.466Z,98320.22
2018-09-08T01:14:47.878Z,98318.13
2018-09-08T01:17:17.233Z,98323.66
2018-09-08T01:19:46.603Z,98328.28
2018-09-08T01:22:16.122Z,98333.36
2018-09-08T01:24:45.756Z,98329.38
2018-09-08T01:27:15.106Z,98336.70
2018-09-08T01:29:44.515Z,98343.97
2018-09-08T01:32:13.969Z,98340.56
2018-09-08T01:34:43.361Z,98344.78
2018-09-08T01:37:12.826Z,98344.75
2018-09-08T01:39:42.179Z,98341.31
2018-09-08T01:42:11.557Z,98347.24
2018-09-08T01:44:40.910Z,98351.92
2018-09-08T01:47:10.285Z,98348.98
2018-09-08T01:49:39.698Z,98350.25
2018-09-08T01:52:09.166Z,98345.64
2018-09-08T01:54:38.525Z,98358.77
2018-09-08T01:57:08.045Z,98354.47
2018-09-08T01:59:37.418Z,98362.56
2018-09-08T02:02:06.814Z,98359.94
2018-09-08T02:04:36.162Z,98363.70
2018-09-08T02:07:05.634Z,98364.16
2018-09-08T02:09:35.011Z,98369.58
2018-09-08T02:12:04.358Z,98365.33
2018-09-08T02:14:33.725Z,98371.77
2018-09-08T02:17:03.104Z,98369.08
2018-09-08T02:19:32.506Z,98366.45
2018-09-08T02:22:01.870Z,98366.41
2018-09-08T02:24:31.442Z,98365.91
2018-09-08T02:27:00.823Z,98363.31
2018-09-08T02:29:30.171Z,98359.14
2018-09-08T02:31:59.635Z,98354.84
2018-09-08T02:34:28.994Z,98357.86
2018-09-08T02:36:58.361Z,98361.30
2018-09-08T02:39:27.725Z,98358.17
2018-09-08T02:41:57.103Z,98367.09
2018-09-08T02:44:26.454Z,98363.73
2018-09-08T02:46:55.878Z,98361.14
2018-09-08T02:49:40.834Z,98361.61
2018-09-08T02:52:08.571Z,98363.34
2018-09-08T02:54:36.390Z,98365.86
2018-09-08T02:57:04.126Z,98357.86
2018-09-08T02:59:31.867Z,98359.91
2018-09-08T03:01:59.590Z,98364.97
2018-09-08T03:04:27.311Z,98361.27
2018-09-08T03:06:55.054Z,98364.67
2018-09-08T03:09:22.774Z,98368.03
2018-09-08T03:11:50.502Z,98368.45
2018-09-08T03:14:18.242Z,98358.33
2018-09-08T03:16:45.982Z,98361.34
2018-09-08T03:19:13.730Z,98368.14
2018-09-08T03:21:41.548Z,98375.41
2018-09-08T03:24:09.258Z,98378.01
2018-09-08T03:26:36.994Z,98376.00
2018-09-08T03:29:04.722Z,98372.09
2018-09-08T03:31:32.438Z,98378.58
2018-09-08T03:34:00.182Z,98382.88
2018-09-08T03:36:28.241Z,98381.48
2018-09-08T03:38:55.963Z,98390.92
2018-09-08T03:41:23.704Z,98393.97
2018-09-08T03:43:51.798Z,98390.98
2018-09-08T03:46:19.805Z,98388.48
2018-09-08T03:48:47.694Z,98389.36
2018-09-08T03:51:15.417Z,98392.77
2018-09-08T03:53:43.198Z,98389.78
2018-09-08T03:56:10.940Z,98389.64
2018-09-08T03:58:38.663Z,98382.84
2018-09-08T04:01:06.394Z,98392.84
2018-09-08T04:03:35.806Z,98399.56
2018-09-08T04:06:05.163Z,98394.25
2018-09-08T04:08:34.530Z,98396.89
2018-09-08T04:11:03.919Z,98399.45
2018-09-08T04:13:33.284Z,98405.39
2018-09-08T04:16:02.638Z,98406.80
2018-09-08T04:18:32.006Z,98410.92
2018-09-08T04:21:01.409Z,98414.32
2018-09-08T04:23:31.193Z,98410.36
2018-09-08T04:26:00.805Z,98408.33
2018-09-08T04:28:30.282Z,98413.84
2018-09-08T04:30:59.893Z,98417.97
2018-09-08T04:33:29.255Z,98421.41
2018-09-08T04:35:58.626Z,98419.72
2018-09-08T04:38:27.990Z,98422.60
2018-09-08T04:40:57.411Z,98425.76
2018-09-08T04:43:26.879Z,98423.73
2018-09-08T04:45:56.237Z,98423.34
2018-09-08T04:48:25.630Z,98426.18
2018-09-08T04:50:54.990Z,98423.67
2018-09-08T04:53:24.345Z,98437.17
2018-09-08T04:55:53.727Z,98437.02
2018-09-08T04:58:23.140Z,98441.22
2018-09-08T05:00:52.761Z,98443.16
2018-09-08T05:03:22.121Z,98441.36
2018-09-08T05:05:51.490Z,98448.47
2018-09-08T05:08:20.886Z,98450.05
2018-09-08T05:10:50.270Z,98447.44
2018-09-08T05:13:19.624Z,98457.30
2018-09-08T05:15:49.011Z,98453.30
2018-09-08T05:18:18.371Z,98448.26
2018-09-08T05:20:47.718Z,98456.70
2018-09-08T05:23:17.082Z,98456.44
2018-09-08T05:25:46.474Z,98455.33
2018-09-08T05:28:15.854Z,98454.80
2018-09-08T05:30:45.298Z,98456.98
2018-09-08T05:33:14.658Z,98450.81
2018-09-08T05:35:44.026Z,98448.37
2018-09-08T05:38:13.374Z,98454.79
2018-09-08T05:40:42.789Z,98449.69
2018-09-08T05:43:12.152Z,98447.67
2018-09-08T05:45:41.506Z,98435.19
2018-09-08T05:48:10.907Z,98460.56
2018-09-08T05:50:40.282Z,98457.97
2018-09-08T05:53:09.630Z,98467.45
2018-09-08T05:55:39.002Z,98468.31
2018-09-08T05:58:08.473Z,98472.23
2018-09-08T06:00:37.922Z,98469.26
2018-09-08T06:03:07.523Z,98468.87
2018-09-08T06:05:36.882Z,98478.18
2018-09-08T06:08:06.269Z,98480.76
2018-09-08T06:10:35.635Z,98469.25
2018-09-08T06:13:05.028Z,98470.76
2018-09-08T06:15:34.382Z,98473.92
2018-09-08T06:18:03.781Z,98481.16
2018-09-08T06:20:33.145Z,98481.34
2018-09-08T06:23:02.507Z,98477.30
2018-09-08T06:25:31.980Z,98476.16
2018-09-08T06:28:01.402Z,98480.14
2018-09-08T06:30:31.118Z,98474.29
2018-09-08T06:33:00.486Z,98481.06
2018-09-08T06:35:29.887Z,98483.97
2018-09-08T06:37:59.260Z,98484.44
2018-09-08T06:40:28.616Z,98488.09
2018-09-08T06:42:57.978Z,98490.29
2018-09-08T06:45:27.378Z,98488.20
2018-09-08T06:47:56.750Z,98487.96
2018-09-08T06:50:26.094Z,98484.67
2018-09-08T06:52:55.495Z,98480.55
2018-09-08T06:55:24.844Z,98481.02
2018-09-08T06:57:54.266Z,98483.64
2018-09-08T07:00:23.602Z,98486.27
2018-09-08T07:02:52.945Z,98481.59
2018-09-08T07:05:22.310Z,98486.39
2018-09-08T07:07:51.701Z,98497.48
2018-09-08T07:10:21.074Z,98497.04
2018-09-08T07:12:50.430Z,98466.78
2018-09-08T07:15:19.885Z,98497.67
2018-09-08T07:17:49.177Z,98494.77
2018-09-08T07:20:18.608Z,98490.11
2018-09-08T07:22:47.979Z,98487.13
2018-09-08T07:25:17.419Z,98488.43
2018-09-08T07:27:46.802Z,98484.98
2018-09-08T07:30:16.221Z,98489.27
2018-09-08T07:32:45.670Z,98493.99
2018-09-08T07:35:15.052Z,98496.95
2018-09-08T07:37:44.445Z,98499.97
2018-09-08T07:40:13.840Z,98498.25
2018-09-08T07:42:43.270Z,98496.55
2018-09-08T07:45:13.037Z,98501.21
2018-09-08T07:47:43.107Z,98492.66
2018-09-08T07:50:12.486Z,98494.72
2018-09-08T07:52:41.903Z,98494.30
2018-09-08T07:55:11.295Z,98489.12
2018-09-08T07:57:40.665Z,98493.35
2018-09-08T08:00:10.049Z,98494.17
2018-09-08T08:02:39.430Z,98488.91
2018-09-08T08:05:09.326Z,98491.81
2018-09-08T08:07:38.716Z,98495.18
2018-09-08T08:10:08.505Z,98495.50
2018-09-08T08:12:37.895Z,98494.45
2018-09-08T08:15:07.322Z,98494.82
2018-09-08T08:17:36.709Z,98484.02
2018-09-08T08:20:06.181Z,98481.80
2018-09-08T08:22:35.590Z,98485.64
2018-09-08T08:25:05.055Z,98487.36
2018-09-08T08:27:34.462Z,98481.78
2018-09-08T08:30:03.998Z,98477.84
2018-09-08T08:32:33.414Z,98477.67
2018-09-08T08:35:02.798Z,98474.98
2018-09-08T08:37:32.466Z,98479.05
2018-09-08T08:40:01.874Z,98478.01
2018-09-08T08:42:31.281Z,98474.75
2018-09-08T08:45:00.687Z,98481.23
2018-09-08T08:47:30.051Z,98485.06
2018-09-08T08:50:16.517Z,98486.02
2018-09-08T08:53:02.830Z,98479.61
2018-09-08T08:55:32.400Z,98483.48
2018-09-08T08:58:01.768Z,98476.88
2018-09-08T09:00:31.134Z,98479.95
2018-09-08T09:03:00.601Z,98482.66
2018-09-08T09:05:29.997Z,98475.97
2018-09-08T09:07:59.366Z,98477.45
2018-09-08T09:10:28.759Z,98470.43
2018-09-08T09:12:58.172Z,98472.82
2018-09-08T09:15:28.002Z,98473.36
2018-09-08T09:17:57.436Z,98468.73
2018-09-08T09:20:44.152Z,98475.09
2018-09-08T09:23:30.840Z,98470.22
2018-09-08T09:26:00.655Z,98461.03
2018-09-08T09:28:30.496Z,98472.83
2018-09-08T09:31:00.120Z,98469.55
2018-09-08T09:33:29.790Z,98475.17
2018-09-08T09:35:59.558Z,98473.65
2018-09-08T09:38:29.248Z,98471.63
2018-09-08T09:40:59.188Z,98473.28
2018-09-08T09:43:28.939Z,98468.99
2018-09-08T09:45:58.743Z,98470.50
2018-09-08T09:48:28.454Z,98469.55
2018-09-08T09:50:57.878Z,98470.89
2018-09-08T09:53:27.271Z,98468.47
2018-09-08T09:55:56.670Z,98464.48
2018-09-08T09:58:26.026Z,98457.45
2018-09-08T10:01:00.811Z,98461.08
2018-09-08T10:03:30.198Z,98460.30
2018-09-08T10:05:59.627Z,98464.14
2018-09-08T10:08:29.014Z,98464.88
2018-09-08T10:10:59.371Z,98471.80
2018-09-08T10:13:28.776Z,98473.23
2018-09-08T10:15:58.182Z,98476.98
2018-09-08T10:18:27.542Z,98477.54
2018-09-08T10:20:56.907Z,98478.16
2018-09-08T10:23:26.421Z,98471.70
2018-09-08T10:25:55.678Z,98471.05
2018-09-08T10:28:25.066Z,98465.73
2018-09-08T10:30:54.423Z,98465.20
2018-09-08T10:33:23.792Z,98467.91
2018-09-08T10:35:53.166Z,98452.33
2018-09-08T10:38:22.547Z,98442.59
2018-09-08T10:40:51.907Z,98444.65
2018-09-08T10:43:21.355Z,98436.50
2018-09-08T10:45:50.932Z,98428.86
2018-09-08T10:48:20.318Z,98438.19
2018-09-08T10:50:49.721Z,98441.89
2018-09-08T10:53:19.138Z,98437.84
2018-09-08T10:55:48.514Z,98429.98
2018-09-08T10:58:17.975Z,98422.38
2018-09-08T11:00:47.362Z,98424.57
2018-09-08T11:03:16.734Z,98426.23
2018-09-08T11:05:46.118Z,98424.95
2018-09-08T11:08:15.650Z,98428.50
2018-09-08T11:10:45.015Z,98429.11
2018-09-08T11:13:14.396Z,98423.97
2018-09-08T11:15:43.828Z,98414.41
2018-09-08T11:18:13.146Z,98422.32
2018-09-08T11:20:42.517Z,98417.64
2018-09-08T11:23:11.877Z,98421.55
2018-09-08T11:25:41.278Z,98421.09
2018-09-08T11:28:10.694Z,98423.05
2018-09-08T11:30:40.068Z,98417.55
2018-09-08T11:33:09.443Z,98424.98
2018-09-08T11:35:38.802Z,98425.92
2018-09-08T11:38:08.194Z,98422.92
2018-09-08T11:40:37.624Z,98421.95
2018-09-08T11:43:07.003Z,98424.09
2018-09-08T11:45:36.378Z,98421.17
2018-09-08T11:48:05.836Z,98415.47
2018-09-08T11:50:35.212Z,98409.39
2018-09-08T11:53:04.633Z,98418.73
2018-09-08T11:55:34.003Z,98416.44
2018-09-08T11:58:03.302Z,98410.56
2018-09-08T12:00:32.666Z,98412.60
2018-09-08T12:03:02.213Z,98410.44
2018-09-08T12:05:31.556Z,98412.90
2018-09-08T12:08:00.959Z,98411.03
2018-09-08T12:10:30.319Z,98405.69
2018-09-08T12:12:59.679Z,98412.95
2018-09-08T12:15:29.072Z,98403.45
2018-09-08T12:17:58.448Z,98401.89
2018-09-08T12:20:27.856Z,98391.88
2018-09-08T12:22:57.232Z,98389.33
2018-09-08T12:25:26.590Z,98385.73
2018-09-08T12:27:55.963Z,98386.69
2018-09-08T12:30:25.358Z,98385.90
2018-09-08T12:32:54.722Z,98384.24
2018-09-08T12:35:24.091Z,98397.28
2018-09-08T12:37:53.465Z,98388.61
2018-09-08T12:40:22.874Z,98394.73
2018-09-08T12:42:52.238Z,98385.09
2018-09-08T12:45:21.618Z,98386.77
2018-09-08T12:47:51.138Z,98377.34
2018-09-08T12:50:20.550Z,98364.02
2018-09-08T12:52:50.759Z,98361.01
2018-09-08T12:55:20.139Z,98360.38
2018-09-08T12:57:49.506Z,98362.81
2018-09-08T13:00:18.903Z,98370.97
2018-09-08T13:02:48.282Z,98374.59
2018-09-08T13:05:17.662Z,98373.81
2018-09-08T13:07:47.479Z,98377.50
2018-09-08T13:10:16.832Z,98368.97
2018-09-08T13:12:46.231Z,98371.33
2018-09-08T13:15:15.886Z,98365.62
2018-09-08T13:17:45.260Z,98359.77
2018-09-08T13:20:14.642Z,98353.89
2018-09-08T13:22:44.186Z,98347.19
2018-09-08T13:25:13.554Z,98346.05
2018-09-08T13:27:42.923Z,98345.16
2018-09-08T13:30:12.314Z,98344.11
2018-09-08T13:32:41.679Z,98346.92
2018-09-08T13:35:11.047Z,98343.49
2018-09-08T13:37:40.416Z,98344.05
2018-09-08T13:40:09.798Z,98346.95
2018-09-08T13:42:39.178Z,98342.73
2018-09-08T13:45:08.577Z,98343.06
2018-09-08T13:47:37.954Z,98351.38
2018-09-08T13:50:07.461Z,98354.72
2018-09-08T13:52:36.855Z,98343.21
2018-09-08T13:55:06.594Z,98344.14
2018-09-08T13:57:35.999Z,98329.94
2018-09-08T14:00:06.422Z,98335.30
2018-09-08T14:02:35.919Z,98326.05
2018-09-08T14:05:05.332Z,98328.86
2018-09-08T14:07:34.747Z,98331.02
2018-09-08T14:10:04.123Z,98327.86
2018-09-08T14:12:33.495Z,98336.86
2018-09-08T14:15:02.858Z,98336.73
2018-09-08T14:17:32.242Z,98337.66
2018-09-08T14:20:01.646Z,98332.19
2018-09-08T14:22:31.035Z,98336.36
2018-09-08T14:25:00.414Z,98332.57
2018-09-08T14:27:29.793Z,98332.23
2018-09-08T14:29:59.171Z,98324.70
2018-09-08T14:32:28.577Z,98329.69
2018-09-08T14:34:58.038Z,98335.23
2018-09-08T14:37:27.416Z,98328.95
2018-09-08T14:39:56.804Z,98333.81
2018-09-08T14:42:26.183Z,98331.84
2018-09-08T14:44:55.549Z,98332.89
2018-09-08T14:47:24.945Z,98334.33
2018-09-08T14:49:54.418Z,98335.21
2018-09-08T14:52:23.790Z,98331.98
2018-09-08T14:54:53.319Z,98337.14
2018-09-08T14:57:22.694Z,98344.63
2018-09-08T14:59:52.087Z,98342.23
2018-09-08T15:02:21.535Z,98339.52
2018-09-08T15:04:51.049Z,98334.59
2018-09-08T15:07:20.279Z,98334.53
2018-09-08T15:09:49.646Z,98332.83
2018-09-08T15:12:19.023Z,98326.42
2018-09-08T15:14:48.530Z,98323.77
2018-09-08T15:17:17.916Z,98323.98
2018-09-08T15:19:47.303Z,98326.88
2018-09-08T15:22:16.723Z,98324.84
2018-09-08T15:24:46.118Z,98324.66
2018-09-08T15:27:15.482Z,98328.49
2018-09-08T15:29:44.855Z,98327.09
2018-09-08T15:32:14.219Z,98329.05
2018-09-08T15:34:43.590Z,98342.04
2018-09-08T15:37:12.979Z,98343.78
2018-09-08T15:39:42.358Z,98349.69
2018-09-08T15:47:13.017Z,98352.88
2018-09-08T15:49:42.415Z,98351.20
2018-09-08T15:52:11.806Z,98352.16
2018-09-08T15:54:41.198Z,98348.42
2018-09-08T15:57:10.606Z,98349.17
2018-09-08T15:59:40.019Z,98350.44
2018-09-08T16:02:09.442Z,98342.11
2018-09-08T16:04:38.879Z,98351.48
2018-09-08T16:07:08.554Z,98352.52
2018-09-08T16:09:37.929Z,98348.97
2018-09-08T16:12:07.322Z,98348.81
2018-09-08T16:14:36.820Z,98350.69
2018-09-08T16:17:06.474Z,98353.22
2018-09-08T16:19:35.870Z,98352.84
2018-09-08T16:22:05.350Z,98348.38
2018-09-08T16:24:34.727Z,98346.17
2018-09-08T16:27:04.115Z,98351.98
2018-09-08T16:29:33.556Z,98345.95
2018-09-08T16:32:02.934Z,98349.25
2018-09-08T16:34:32.347Z,98341.55
2018-09-08T16:37:03.860Z,98339.44
2018-09-08T16:39:33.260Z,98349.92
2018-09-08T16:42:02.627Z,98346.48
2018-09-08T16:44:32.096Z,98347.50
2018-09-08T16:47:01.463Z,98325.16
2018-09-08T16:49:30.975Z,98341.63
2018-09-08T16:52:00.383Z,98346.80
2018-09-08T16:54:29.739Z,98347.00
2018-09-08T16:56:59.149Z,98352.14
2018-09-08T16:59:28.567Z,98349.77
2018-09-08T17:01:57.955Z,98345.87
2018-09-08T17:04:27.355Z,98347.95
2018-09-08T17:06:56.766Z,98359.12
2018-09-08T17:09:26.167Z,98354.88
2018-09-08T17:11:55.562Z,98358.33
2018-09-08T17:14:24.989Z,98352.41
2018-09-08T17:16:54.441Z,98344.48
2018-09-08T17:19:25.841Z,98356.10
2018-09-08T17:21:55.250Z,98343.30
2018-09-08T17:24:24.659Z,98339.18
2018-09-08T17:26:54.071Z,98336.22
2018-09-08T17:29:23.486Z,98344.41
2018-09-08T17:31:52.879Z,98345.45
2018-09-08T17:34:22.262Z,98356.83
2018-09-08T17:36:53.727Z,98363.73
2018-09-08T17:39:23.119Z,98366.14
2018-09-08T17:41:52.515Z,98370.50
2018-09-08T17:44:21.916Z,98377.33
2018-09-08T17:46:51.384Z,98355.33
2018-09-08T17:49:20.777Z,98341.45
2018-09-08T17:51:50.177Z,98344.59
2018-09-08T17:54:21.597Z,98363.61
2018-09-08T17:56:51.006Z,98340.56
2018-09-08T17:59:20.394Z,98368.06
2018-09-08T18:01:49.794Z,98371.62
2018-09-08T18:04:19.198Z,98373.20
2018-09-08T18:06:48.590Z,98366.88
2018-09-08T18:09:17.970Z,98367.72
2018-09-08T18:11:47.441Z,98364.27
2018-09-08T18:14:16.791Z,98363.32
2018-09-08T18:16:46.175Z,98359.88
2018-09-08T18:19:15.584Z,98361.50
2018-09-08T18:21:44.965Z,98372.07
2018-09-08T18:24:14.343Z,98381.45
2018-09-08T18:26:43.750Z,98382.66
2018-09-08T18:29:13.166Z,98380.86
2018-09-08T18:31:43.651Z,98378.26
2018-09-08T18:34:13.059Z,98368.42
2018-09-08T18:36:42.439Z,98358.79
2018-09-08T18:39:11.956Z,98350.16
2018-09-08T18:41:41.523Z,98368.34
2018-09-08T18:44:10.942Z,98376.36
2018-09-08T18:46:40.346Z,98385.19
2018-09-08T18:49:09.784Z,98373.72
2018-09-08T18:51:39.212Z,98363.53
2018-09-08T18:54:08.661Z,98380.91
2018-09-08T18:56:38.096Z,98386.61
2018-09-08T18:59:07.883Z,98395.66
2018-09-08T19:01:37.380Z,98392.37
2018-09-08T19:04:07.271Z,98396.95
2018-09-08T19:06:36.954Z,98399.52
2018-09-08T19:09:08.938Z,98406.81
2018-09-08T19:11:39.082Z,98408.56
2018-09-08T19:14:13.073Z,98416.14
2018-09-08T19:16:43.593Z,98418.25
2018-09-08T19:19:14.623Z,98408.11
2018-09-08T19:21:46.745Z,98406.54
2018-09-08T19:24:26.406Z,98396.99
2018-09-08T19:26:58.767Z,98399.98
2018-09-08T19:29:35.231Z,98400.13
2018-09-08T19:32:05.930Z,98400.35
2018-09-08T19:34:36.603Z,98397.25
2018-09-08T19:37:09.425Z,98402.95
2018-09-08T19:39:41.111Z,98398.30
2018-09-08T19:42:12.327Z,98400.44
2018-09-08T19:44:45.109Z,98396.08
2018-09-08T19:47:22.371Z,98386.59
2018-09-08T19:49:55.370Z,98384.81
2018-09-08T19:52:31.831Z,98390.05
2018-09-08T19:55:02.687Z,98393.94
2018-09-08T19:57:37.852Z,98396.80
2018-09-08T20:00:07.883Z,98398.55
2018-09-08T20:02:37.665Z,98397.20
2018-09-08T20:05:08.007Z,98398.58
2018-09-08T20:07:39.052Z,98399.72
2018-09-08T20:10:11.695Z,98396.23
2018-09-08T20:12:41.754Z,98401.02
2018-09-08T20:15:11.338Z,98404.15
2018-09-08T20:17:42.339Z,98403.42
2018-09-08T20:20:12.390Z,98392.94
2018-09-08T20:22:41.936Z,98397.57
2018-09-08T20:25:11.898Z,98405.14
2018-09-08T20:27:41.369Z,98396.56
2018-09-08T20:30:11.856Z,98400.05
2018-09-08T20:32:41.931Z,98398.30
2018-09-08T20:35:12.107Z,98404.67
2018-09-08T20:37:41.530Z,98402.27
2018-09-08T20:40:10.926Z,98394.68
2018-09-08T20:42:40.347Z,98389.45
2018-09-08T20:45:09.771Z,98393.44
2018-09-08T20:47:39.190Z,98389.56
2018-09-08T20:50:08.634Z,98390.00
2018-09-08T20:52:37.992Z,98397.42
2018-09-08T20:55:07.428Z,98402.04
2018-09-08T20:57:36.855Z,98403.22
2018-09-08T21:00:06.350Z,98402.67
2018-09-08T21:02:35.795Z,98404.86
2018-09-08T21:05:05.514Z,98414.98
2018-09-08T21:07:34.948Z,98411.94
2018-09-08T21:10:04.338Z,98407.17
2018-09-08T21:12:33.723Z,98413.68
2018-09-08T21:15:03.146Z,98409.40
2018-09-08T21:17:34.605Z,98414.34
2018-09-08T21:20:04.098Z,98423.45
2018-09-08T21:22:33.493Z,98420.97
2018-09-08T21:25:02.894Z,98415.02
2018-09-08T21:27:32.271Z,98418.56
2018-09-08T21:30:02.707Z,98426.25
2018-09-08T21:32:32.210Z,98421.69
2018-09-08T21:35:01.607Z,98417.27
2018-09-08T21:37:31.006Z,98418.55
2018-09-08T21:40:00.393Z,98416.36
2018-09-08T21:42:30.035Z,98410.80
2018-09-08T21:44:59.537Z,98416.88
2018-09-08T21:47:28.935Z,98425.25
2018-09-08T21:49:58.334Z,98426.64
2018-09-08T21:52:27.702Z,98418.50
2018-09-08T21:54:57.079Z,98403.95
2018-09-08T21:57:26.469Z,98401.50
2018-09-08T21:59:55.848Z,98398.93
2018-09-08T22:02:25.238Z,98391.63
2018-09-08T22:04:55.673Z,98387.75
2018-09-08T22:07:25.051Z,98400.66
2018-09-08T22:09:54.470Z,98412.13
2018-09-08T22:12:23.876Z,98412.13
2018-09-08T22:14:53.269Z,98407.20
2018-09-08T22:22:20.190Z,98420.88
2018-09-08T22:24:49.598Z,98424.43
2018-09-08T22:27:19.150Z,98431.01
2018-09-08T22:29:48.570Z,98409.48
2018-09-08T22:32:17.954Z,98393.95
2018-09-08T22:34:47.342Z,98404.45
2018-09-08T22:37:17.818Z,98418.97
2018-09-08T22:39:47.199Z,98422.72
2018-09-08T22:42:16.581Z,98423.00
2018-09-08T22:44:45.981Z,98415.22
2018-09-08T22:47:15.358Z,98417.39
2018-09-08T22:49:44.743Z,98430.37
2018-09-08T22:52:14.231Z,98438.44
2018-09-08T22:54:43.612Z,98443.23
2018-09-08T22:57:12.985Z,98448.27
2018-09-08T22:59:42.458Z,98441.95
2018-09-08T23:02:11.811Z,98440.53
2018-09-08T23:04:41.182Z,98439.77
2018-09-08T23:07:10.578Z,98445.38
2018-09-08T23:09:39.954Z,98445.73
2018-09-08T23:12:09.350Z,98458.88
2018-09-08T23:14:38.729Z,98460.12
2018-09-08T23:17:08.122Z,98460.27
2018-09-08T23:19:37.516Z,98454.31
2018-09-08T23:22:06.971Z,98456.48
2018-09-08T23:24:36.346Z,98460.76
2018-09-08T23:27:05.734Z,98453.98
2018-09-08T23:29:35.150Z,98446.25
2018-09-08T23:32:04.574Z,98454.02
2018-09-08T23:34:33.951Z,98455.05
2018-09-08T23:37:03.378Z,98444.22
2018-09-08T23:39:32.838Z,98449.81
2018-09-08T23:42:04.348Z,98454.60
2018-09-08T23:44:33.838Z,98457.22
2018-09-08T23:47:03.214Z,98458.98
2018-09-08T23:49:32.776Z,98453.02
2018-09-08T23:52:02.204Z,98461.25
2018-09-08T23:54:31.572Z,98459.49
2018-09-08T23:57:00.954Z,98460.68
2018-09-08T23:59:30.388Z,98471.09
